createdAt,value
2019-06-01T00:04:34.027Z,58.62
2019-06-01T00:09:36.128Z,58.80
2019-06-01T00:14:39.588Z,58.97
2019-06-01T00:19:44.034Z,59.28
2019-06-01T00:24:46.338Z,59.59
2019-06-01T00:29:49.506Z,59.93
2019-06-01T00:34:52.053Z,59.89
2019-06-01T00:39:54.329Z,60.11
2019-06-01T00:44:56.785Z,60.49
2019-06-01T00:49:58.938Z,60.69
2019-06-01T00:55:01.309Z,60.99
2019-06-01T01:00:04.054Z,61.49
2019-06-01T01:05:10.627Z,61.71
2019-06-01T01:10:12.966Z,61.93
2019-06-01T01:15:15.176Z,62.52
2019-06-01T01:20:17.212Z,62.85
2019-06-01T01:25:20.471Z,63.15
2019-06-01T01:30:22.772Z,63.36
2019-06-01T01:35:24.932Z,63.57
2019-06-01T01:40:27.684Z,63.87
2019-06-01T01:45:29.856Z,64.07
2019-06-01T01:50:31.863Z,64.46
2019-06-01T01:55:33.901Z,64.66
2019-06-01T02:00:41.741Z,64.87
2019-06-01T02:05:43.966Z,64.77
2019-06-01T02:10:46.195Z,65.18
2019-06-01T02:15:48.149Z,65.30
2019-06-01T02:20:50.098Z,65.46
2019-06-01T02:25:52.942Z,65.62
2019-06-01T02:30:56.148Z,65.62
2019-06-01T02:36:00.675Z,66.15
2019-06-01T02:41:03.383Z,66.02
2019-06-01T02:46:07.640Z,65.94
2019-06-01T02:51:09.848Z,65.92
2019-06-01T02:56:11.865Z,66.07
2019-06-01T03:01:35.253Z,66.52
2019-06-01T03:06:41.506Z,66.68
2019-06-01T03:11:46.949Z,66.61
2019-06-01T03:16:51.507Z,66.58
2019-06-01T03:21:57.170Z,66.25
2019-06-01T03:27:02.983Z,66.36
2019-06-01T03:32:24.244Z,66.28
2019-06-01T03:37:09.563Z,66.37
2019-06-01T03:42:11.816Z,66.47
2019-06-01T03:47:14.079Z,66.57
2019-06-01T03:52:16.256Z,66.74
2019-06-01T03:57:18.441Z,66.86
2019-06-01T04:02:32.497Z,66.98
2019-06-01T04:07:24.546Z,67.38
2019-06-01T04:12:26.643Z,67.53
2019-06-01T04:17:28.598Z,67.64
2019-06-01T04:22:30.570Z,68.06
2019-06-01T04:27:32.646Z,68.03
2019-06-01T04:32:48.814Z,67.87
2019-06-01T04:37:39.708Z,67.69
2019-06-01T04:42:41.639Z,68.04
2019-06-01T04:47:43.623Z,68.30
2019-06-01T04:52:45.734Z,68.20
2019-06-01T04:57:48.061Z,67.94
2019-06-01T05:03:04.418Z,68.00
2019-06-01T05:07:53.940Z,68.21
2019-06-01T05:12:55.860Z,67.62
2019-06-01T05:17:57.945Z,65.95
2019-06-01T05:22:59.967Z,64.92
2019-06-01T05:28:02.150Z,64.07
2019-06-01T05:33:18.522Z,64.06
2019-06-01T05:38:08.250Z,63.99
2019-06-01T05:43:14.071Z,64.22
2019-06-01T05:48:22.925Z,63.78
2019-06-01T05:53:19.952Z,63.60
2019-06-01T05:58:22.259Z,63.88
2019-06-01T06:03:39.512Z,63.80
2019-06-01T06:08:28.171Z,63.99
2019-06-01T06:13:30.143Z,63.50
2019-06-01T06:18:32.787Z,63.53
2019-06-01T06:23:34.790Z,63.43
2019-06-01T06:28:36.964Z,63.25
2019-06-01T06:33:38.932Z,63.16
2019-06-01T06:38:41.068Z,63.02
2019-06-01T06:43:43.022Z,62.67
2019-06-01T06:48:45.283Z,62.54
2019-06-01T06:53:47.587Z,62.34
2019-06-01T06:58:49.646Z,62.30
2019-06-01T07:03:51.590Z,61.91
2019-06-01T07:08:53.698Z,62.08
2019-06-01T07:13:55.633Z,62.17
2019-06-01T07:18:57.696Z,62.09
2019-06-01T07:24:01.494Z,62.05
2019-06-01T07:29:03.748Z,61.77
2019-06-01T07:34:05.770Z,61.37
2019-06-01T07:39:07.832Z,61.05
2019-06-01T07:44:09.802Z,61.13
2019-06-01T07:49:11.943Z,61.28
2019-06-01T07:54:13.992Z,61.36
2019-06-01T07:59:16.217Z,61.02
2019-06-01T08:04:18.171Z,61.21
2019-06-01T08:09:22.142Z,60.73
2019-06-01T08:14:24.526Z,60.32
2019-06-01T08:19:27.951Z,60.43
2019-06-01T08:24:30.333Z,60.16
2019-06-01T08:29:32.909Z,59.45
2019-06-01T08:34:34.959Z,59.26
2019-06-01T08:39:36.994Z,59.26
2019-06-01T08:44:38.987Z,58.46
2019-06-01T08:49:41.024Z,58.12
2019-06-01T08:54:43.182Z,57.81
2019-06-01T08:59:45.238Z,57.62
2019-06-01T09:04:47.260Z,57.29
2019-06-01T09:09:50.626Z,56.69
2019-06-01T09:14:52.552Z,56.13
2019-06-01T09:19:54.570Z,55.57
2019-06-01T09:24:56.604Z,54.37
2019-06-01T09:29:58.879Z,53.95
2019-06-01T09:35:00.811Z,53.44
2019-06-01T09:40:03.424Z,53.64
2019-06-01T09:45:05.861Z,53.10
2019-06-01T09:50:07.974Z,51.46
2019-06-01T09:55:10.338Z,51.03
2019-06-01T10:00:13.288Z,49.76
2019-06-01T10:05:15.456Z,49.42
2019-06-01T10:10:19.091Z,49.12
2019-06-01T10:15:21.137Z,49.14
2019-06-01T10:20:23.130Z,49.14
2019-06-01T10:25:25.192Z,47.61
2019-06-01T10:30:27.506Z,47.51
2019-06-01T10:35:30.730Z,46.52
2019-06-01T10:40:33.413Z,46.17
2019-06-01T10:45:35.782Z,46.44
2019-06-01T10:50:38.443Z,45.80
2019-06-01T10:55:40.612Z,45.23
2019-06-01T11:00:50.235Z,44.68
2019-06-01T11:05:46.751Z,43.72
2019-06-01T11:10:48.815Z,43.02
2019-06-01T11:15:50.771Z,43.14
2019-06-01T11:20:52.794Z,43.02
2019-06-01T11:25:54.715Z,42.36
2019-06-01T11:30:56.799Z,42.78
2019-06-01T11:35:58.721Z,42.91
2019-06-01T11:41:00.753Z,42.50
2019-06-01T11:46:03.287Z,41.99
2019-06-01T11:51:05.442Z,41.04
2019-06-01T11:56:07.547Z,40.88
2019-06-01T12:01:09.811Z,40.20
2019-06-01T12:06:11.822Z,39.60
2019-06-01T12:11:13.870Z,39.67
2019-06-01T12:16:15.860Z,39.23
2019-06-01T12:21:17.835Z,39.05
2019-06-01T12:26:19.842Z,38.66
2019-06-01T12:31:21.926Z,37.99
2019-06-01T12:36:24.982Z,38.18
2019-06-01T12:41:27.053Z,37.90
2019-06-01T12:46:28.995Z,37.83
2019-06-01T12:51:31.024Z,38.06
2019-06-01T12:56:33.228Z,37.85
2019-06-01T13:01:35.479Z,38.14
2019-06-01T13:06:37.449Z,38.02
2019-06-01T13:11:39.577Z,37.67
2019-06-01T13:16:46.310Z,36.74
2019-06-01T13:21:45.632Z,37.20
2019-06-01T13:26:47.936Z,36.58
2019-06-01T13:31:50.508Z,37.32
2019-06-01T13:36:53.051Z,36.94
2019-06-01T13:41:55.162Z,36.79
2019-06-01T13:46:57.445Z,36.02
2019-06-01T13:51:59.470Z,35.53
2019-06-01T13:57:02.774Z,34.80
2019-06-01T14:02:04.991Z,34.55
2019-06-01T14:07:07.112Z,34.22
2019-06-01T14:12:09.136Z,33.97
2019-06-01T14:17:11.064Z,33.79
2019-06-01T14:22:13.046Z,33.85
2019-06-01T14:27:14.955Z,33.83
2019-06-01T14:32:16.974Z,34.13
2019-06-01T14:37:19.005Z,33.67
2019-06-01T14:42:20.959Z,33.37
2019-06-01T14:47:22.985Z,32.81
2019-06-01T14:52:24.957Z,32.83
2019-06-01T14:57:27.016Z,32.90
2019-06-01T15:02:29.189Z,32.79
2019-06-01T15:07:31.168Z,33.08
2019-06-01T15:12:33.116Z,32.76
2019-06-01T15:17:35.255Z,32.85
2019-06-01T15:22:37.335Z,33.40
2019-06-01T15:27:39.387Z,33.38
2019-06-01T15:32:41.426Z,33.28
2019-06-01T15:37:43.355Z,33.10
2019-06-01T15:42:45.420Z,32.99
2019-06-01T15:47:47.942Z,33.04
2019-06-01T15:52:50.085Z,32.97
2019-06-01T15:57:52.412Z,33.02
2019-06-01T16:02:54.827Z,32.96
2019-06-01T16:07:57.143Z,32.79
2019-06-01T16:12:59.613Z,33.02
2019-06-01T16:18:02.107Z,32.76
2019-06-01T16:23:05.219Z,32.94
2019-06-01T16:28:07.343Z,32.49
2019-06-01T16:33:09.446Z,32.28
2019-06-01T16:38:11.394Z,32.25
2019-06-01T16:43:13.497Z,32.81
2019-06-01T16:48:15.538Z,33.05
2019-06-01T16:53:17.649Z,33.09
2019-06-01T16:58:19.695Z,33.18
2019-06-01T17:03:21.812Z,33.05
2019-06-01T17:08:24.476Z,32.67
2019-06-01T17:13:27.439Z,33.10
2019-06-01T17:18:29.384Z,33.41
2019-06-01T17:23:33.241Z,33.54
2019-06-01T17:28:35.373Z,33.66
2019-06-01T17:33:37.543Z,33.67
2019-06-01T17:38:40.200Z,33.95
2019-06-01T17:43:42.180Z,33.87
2019-06-01T17:48:44.220Z,34.02
2019-06-01T17:53:46.358Z,34.37
2019-06-01T17:58:48.354Z,34.72
2019-06-01T18:03:50.403Z,35.04
2019-06-01T18:08:52.423Z,35.34
2019-06-01T18:13:54.593Z,35.68
2019-06-01T18:18:56.850Z,36.08
2019-06-01T18:24:02.610Z,36.35
2019-06-01T18:29:03.109Z,36.44
2019-06-01T18:34:05.501Z,36.66
2019-06-01T18:39:07.789Z,36.80
2019-06-01T18:44:09.867Z,37.14
2019-06-01T18:49:12.016Z,37.29
2019-06-01T18:54:15.201Z,37.43
2019-06-01T18:59:17.424Z,37.74
2019-06-01T19:04:20.559Z,37.96
2019-06-01T19:09:22.476Z,38.23
2019-06-01T19:14:24.795Z,39.70
2019-06-01T19:19:26.698Z,41.18
2019-06-01T19:24:28.808Z,41.47
2019-06-01T19:29:30.805Z,41.85
2019-06-01T19:34:33.058Z,42.54
2019-06-01T19:39:36.100Z,42.72
2019-06-01T19:44:38.070Z,42.89
2019-06-01T19:49:43.668Z,43.04
2019-06-01T19:54:44.109Z,43.12
2019-06-01T19:59:46.453Z,43.40
2019-06-01T20:04:48.646Z,43.89
2019-06-01T20:09:50.619Z,44.18
2019-06-01T20:14:52.590Z,44.42
2019-06-01T20:19:54.531Z,44.87
2019-06-01T20:24:56.555Z,44.84
2019-06-01T20:29:58.465Z,45.04
2019-06-01T20:35:07.355Z,45.13
2019-06-01T20:40:12.193Z,45.36
2019-06-01T20:45:14.870Z,45.50
2019-06-01T20:50:17.014Z,45.84
2019-06-01T20:55:19.304Z,45.76
2019-06-01T21:00:21.760Z,45.97
2019-06-01T21:05:24.684Z,46.16
2019-06-01T21:10:26.681Z,46.19
2019-06-01T21:15:28.787Z,46.50
2019-06-01T21:20:31.719Z,46.36
2019-06-01T21:25:35.090Z,46.49
2019-06-01T21:30:37.201Z,46.58
2019-06-01T21:35:39.410Z,46.78
2019-06-01T21:40:41.525Z,46.89
2019-06-01T21:45:44.272Z,46.88
2019-06-01T21:50:46.321Z,46.94
2019-06-01T21:55:48.335Z,46.99
2019-06-01T22:00:50.301Z,47.45
2019-06-01T22:09:56.183Z,47.15
2019-06-01T22:14:58.230Z,47.49
2019-06-01T22:20:00.221Z,47.00
2019-06-01T22:25:02.448Z,47.10
2019-06-01T22:30:06.266Z,47.52
2019-06-01T22:35:08.491Z,47.78
2019-06-01T22:40:10.906Z,47.87
2019-06-01T22:45:13.606Z,47.97
2019-06-01T22:50:15.757Z,48.26
2019-06-01T22:55:17.973Z,48.77
2019-06-01T23:00:21.415Z,49.27
2019-06-01T23:05:24.931Z,49.52
2019-06-01T23:10:31.440Z,49.85
2019-06-01T23:15:31.976Z,50.02
2019-06-01T23:20:34.134Z,50.18
2019-06-01T23:25:36.089Z,50.56
2019-06-01T23:30:38.114Z,51.31
2019-06-01T23:35:40.000Z,51.56
2019-06-01T23:40:43.029Z,51.29
2019-06-01T23:45:44.960Z,51.75
2019-06-01T23:50:46.948Z,52.26
2019-06-01T23:55:48.995Z,51.85
